North Dighton, Massachusetts
Current Conditions -  °F | °C
As of 8:52 AM on Saturday 20 Dec 2014 (Local Time) from KTAN Reporting Station
Overcast Overcast  
Wind Chill: -4°   Ceiling: 3100
Heat Index:   Visibility: 10mi
Dew Point: -5°   Wind: 7mph
Humidity: 69%   Direction: 340°NNW
Pressure: 30.27"   Gusts: NA
Location:  41.86°N, 71.12°W
Report Text: KTAN 201352Z AUTO 34006KT 10SM OVC031 00/M05 A3027 RMK AO2 SLP251 T00001050
Loading
Personal Weather Stations






























Interactive Weather Map New forecast layout! Learn more

10-Day Weather Forecast

Advertisements
Track Severe Weather on mobile